Terminal Aerodrome Forecast
Issued by NWS Charleston, WV

Home | Current Version | Previous Version | Text Only | Print | Product List | Glossary On
Versions: 1 2 3 4 5 6 7 8 9 10 11 12 13 14 15 16 17 18 19 20 21 22 23
000
FTUS41 KRLX 271120
TAFCRW
TAF
KCRW 271120Z 2712/2812 21005KT P6SM OVC070
     FM271800 24006KT P6SM VCTS BKN045CB
     FM272200 25006KT P6SM SHRA VCTS BKN035CB
     FM280400 21004KT P6SM BKN035
     FM280700 VRB03KT P6SM BKN025
     FM281000 VRB03KT P6SM BKN015=

USA.gov is the U.S. government's official web portal to all federal, state and local government web resources and services.